sensor_id;sensor_type;location;lat;lon;timestamp;P1;durP1;ratioP1;P2;durP2;ratioP2
29280;SDS011;25048;49.590;11.026;2024-03-07T00:01:23;32.03;;;16.73;;
29280;SDS011;25048;49.590;11.026;2024-03-07T00:03:52;105.53;;;94.03;;
29280;SDS011;25048;49.590;11.026;2024-03-07T00:06:20;58.07;;;52.67;;
29280;SDS011;25048;49.590;11.026;2024-03-07T00:08:47;155.40;;;128.53;;
29280;SDS011;25048;49.590;11.026;2024-03-07T00:11:14;102.87;;;93.03;;
29280;SDS011;25048;49.590;11.026;2024-03-07T00:13:43;139.33;;;111.10;;
29280;SDS011;25048;49.590;11.026;2024-03-07T00:16:10;500.80;;;149.93;;
29280;SDS011;25048;49.590;11.026;2024-03-07T00:18:38;180.03;;;136.80;;
29280;SDS011;25048;49.590;11.026;2024-03-07T00:21:06;191.23;;;136.10;;
29280;SDS011;25048;49.590;11.026;2024-03-07T00:23:34;220.27;;;143.60;;
29280;SDS011;25048;49.590;11.026;2024-03-07T00:26:01;351.90;;;160.87;;
29280;SDS011;25048;49.590;11.026;2024-03-07T00:28:29;482.23;;;162.20;;
29280;SDS011;25048;49.590;11.026;2024-03-07T00:30:58;438.13;;;156.00;;
29280;SDS011;25048;49.590;11.026;2024-03-07T00:33:26;383.43;;;158.00;;
29280;SDS011;25048;49.590;11.026;2024-03-07T00:35:54;420.03;;;155.23;;
29280;SDS011;25048;49.590;11.026;2024-03-07T00:38:21;419.00;;;152.00;;
29280;SDS011;25048;49.590;11.026;2024-03-07T00:40:49;434.73;;;152.93;;
29280;SDS011;25048;49.590;11.026;2024-03-07T00:43:16;498.97;;;164.57;;
29280;SDS011;25048;49.590;11.026;2024-03-07T00:45:44;440.00;;;158.03;;
29280;SDS011;25048;49.590;11.026;2024-03-07T00:48:13;452.67;;;150.13;;
29280;SDS011;25048;49.590;11.026;2024-03-07T00:50:41;381.93;;;150.50;;
29280;SDS011;25048;49.590;11.026;2024-03-07T00:53:08;448.13;;;150.83;;
29280;SDS011;25048;49.590;11.026;2024-03-07T00:55:36;459.37;;;158.63;;
29280;SDS011;25048;49.590;11.026;2024-03-07T00:58:03;468.13;;;152.67;;
29280;SDS011;25048;49.590;11.026;2024-03-07T01:00:32;512.33;;;145.27;;
29280;SDS011;25048;49.590;11.026;2024-03-07T01:02:59;527.53;;;158.93;;
29280;SDS011;25048;49.590;11.026;2024-03-07T01:05:27;490.17;;;149.20;;
29280;SDS011;25048;49.590;11.026;2024-03-07T01:07:54;556.07;;;155.40;;
29280;SDS011;25048;49.590;11.026;2024-03-07T01:10:22;535.73;;;145.57;;
29280;SDS011;25048;49.590;11.026;2024-03-07T01:12:49;555.53;;;144.13;;
29280;SDS011;25048;49.590;11.026;2024-03-07T01:15:19;579.47;;;143.17;;
29280;SDS011;25048;49.590;11.026;2024-03-07T01:17:47;612.33;;;143.70;;
29280;SDS011;25048;49.590;11.026;2024-03-07T01:20:14;602.67;;;149.67;;
29280;SDS011;25048;49.590;11.026;2024-03-07T01:22:42;553.80;;;138.83;;
29280;SDS011;25048;49.590;11.026;2024-03-07T01:25:09;558.03;;;140.27;;
29280;SDS011;25048;49.590;11.026;2024-03-07T01:27:39;571.43;;;145.10;;
29280;SDS011;25048;49.590;11.026;2024-03-07T01:30:06;506.67;;;148.03;;
29280;SDS011;25048;49.590;11.026;2024-03-07T01:32:34;551.50;;;153.40;;
29280;SDS011;25048;49.590;11.026;2024-03-07T01:35:02;597.33;;;96.00;;
29280;SDS011;25048;49.590;11.026;2024-03-07T01:37:31;654.30;;;140.43;;
29280;SDS011;25048;49.590;11.026;2024-03-07T01:39:58;658.40;;;142.17;;
29280;SDS011;25048;49.590;11.026;2024-03-07T01:42:27;649.73;;;107.73;;
29280;SDS011;25048;49.590;11.026;2024-03-07T01:44:55;663.90;;;110.63;;
29280;SDS011;25048;49.590;11.026;2024-03-07T01:47:23;691.87;;;126.70;;
29280;SDS011;25048;49.590;11.026;2024-03-07T01:49:51;681.67;;;121.80;;
29280;SDS011;25048;49.590;11.026;2024-03-07T01:52:18;684.87;;;128.23;;
29280;SDS011;25048;49.590;11.026;2024-03-07T01:54:47;660.40;;;118.50;;
29280;SDS011;25048;49.590;11.026;2024-03-07T01:57:16;647.37;;;118.53;;
29280;SDS011;25048;49.590;11.026;2024-03-07T01:59:45;674.97;;;178.73;;
29280;SDS011;25048;49.590;11.026;2024-03-07T02:02:14;661.10;;;132.10;;
29280;SDS011;25048;49.590;11.026;2024-03-07T02:04:41;643.27;;;108.60;;
29280;SDS011;25048;49.590;11.026;2024-03-07T02:07:09;630.20;;;104.57;;
29280;SDS011;25048;49.590;11.026;2024-03-07T02:09:38;631.67;;;106.10;;
29280;SDS011;25048;49.590;11.026;2024-03-07T02:12:06;644.77;;;138.80;;
29280;SDS011;25048;49.590;11.026;2024-03-07T02:14:34;651.37;;;139.00;;
29280;SDS011;25048;49.590;11.026;2024-03-07T02:17:02;617.23;;;101.73;;
29280;SDS011;25048;49.590;11.026;2024-03-07T02:19:30;658.13;;;119.60;;
29280;SDS011;25048;49.590;11.026;2024-03-07T02:21:58;566.47;;;84.80;;
29280;SDS011;25048;49.590;11.026;2024-03-07T02:24:25;507.17;;;72.20;;
29280;SDS011;25048;49.590;11.026;2024-03-07T02:26:53;541.47;;;98.73;;
29280;SDS011;25048;49.590;11.026;2024-03-07T02:29:20;539.73;;;86.23;;
29280;SDS011;25048;49.590;11.026;2024-03-07T02:31:48;693.90;;;153.17;;
29280;SDS011;25048;49.590;11.026;2024-03-07T02:34:17;695.10;;;159.10;;
29280;SDS011;25048;49.590;11.026;2024-03-07T02:36:45;692.10;;;157.47;;
29280;SDS011;25048;49.590;11.026;2024-03-07T02:39:13;655.33;;;166.47;;
29280;SDS011;25048;49.590;11.026;2024-03-07T02:41:41;682.40;;;144.03;;
29280;SDS011;25048;49.590;11.026;2024-03-07T02:44:08;631.53;;;179.13;;
29280;SDS011;25048;49.590;11.026;2024-03-07T02:46:37;651.50;;;122.43;;
29280;SDS011;25048;49.590;11.026;2024-03-07T02:49:05;680.67;;;161.67;;
29280;SDS011;25048;49.590;11.026;2024-03-07T02:51:32;518.70;;;175.57;;
29280;SDS011;25048;49.590;11.026;2024-03-07T02:54:00;542.33;;;172.57;;
29280;SDS011;25048;49.590;11.026;2024-03-07T02:56:29;534.37;;;184.07;;
29280;SDS011;25048;49.590;11.026;2024-03-07T02:58:57;643.93;;;181.97;;
29280;SDS011;25048;49.590;11.026;2024-03-07T03:01:24;592.67;;;180.07;;
29280;SDS011;25048;49.590;11.026;2024-03-07T03:03:52;479.70;;;183.63;;
29280;SDS011;25048;49.590;11.026;2024-03-07T03:06:20;641.37;;;117.50;;
29280;SDS011;25048;49.590;11.026;2024-03-07T03:08:47;648.03;;;123.57;;
29280;SDS011;25048;49.590;11.026;2024-03-07T03:11:15;692.70;;;148.63;;
29280;SDS011;25048;49.590;11.026;2024-03-07T03:13:43;704.83;;;161.17;;
29280;SDS011;25048;49.590;11.026;2024-03-07T03:16:12;674.57;;;166.43;;
29280;SDS011;25048;49.590;11.026;2024-03-07T03:18:40;646.57;;;171.67;;
29280;SDS011;25048;49.590;11.026;2024-03-07T03:21:07;655.23;;;175.53;;
29280;SDS011;25048;49.590;11.026;2024-03-07T03:23:35;631.27;;;170.23;;
29280;SDS011;25048;49.590;11.026;2024-03-07T03:26:02;618.43;;;176.97;;
29280;SDS011;25048;49.590;11.026;2024-03-07T03:28:30;610.17;;;172.40;;
29280;SDS011;25048;49.590;11.026;2024-03-07T03:30:57;610.83;;;179.83;;
29280;SDS011;25048;49.590;11.026;2024-03-07T03:33:25;612.87;;;172.93;;
29280;SDS011;25048;49.590;11.026;2024-03-07T03:35:52;590.10;;;177.23;;
29280;SDS011;25048;49.590;11.026;2024-03-07T03:38:21;620.07;;;172.23;;
29280;SDS011;25048;49.590;11.026;2024-03-07T03:40:48;643.97;;;129.07;;
29280;SDS011;25048;49.590;11.026;2024-03-07T03:43:16;680.07;;;144.93;;
29280;SDS011;25048;49.590;11.026;2024-03-07T03:45:44;474.80;;;164.30;;
29280;SDS011;25048;49.590;11.026;2024-03-07T03:48:13;487.23;;;165.33;;
29280;SDS011;25048;49.590;11.026;2024-03-07T03:50:41;464.87;;;165.03;;
29280;SDS011;25048;49.590;11.026;2024-03-07T03:53:08;505.60;;;167.80;;
29280;SDS011;25048;49.590;11.026;2024-03-07T03:55:36;510.83;;;165.83;;
29280;SDS011;25048;49.590;11.026;2024-03-07T03:58:03;473.47;;;160.60;;
29280;SDS011;25048;49.590;11.026;2024-03-07T04:00:32;448.50;;;156.87;;
29280;SDS011;25048;49.590;11.026;2024-03-07T04:03:00;479.60;;;154.53;;
29280;SDS011;25048;49.590;11.026;2024-03-07T04:05:28;543.50;;;143.33;;
29280;SDS011;25048;49.590;11.026;2024-03-07T04:07:55;614.50;;;147.30;;
29280;SDS011;25048;49.590;11.026;2024-03-07T04:10:24;624.70;;;123.57;;
29280;SDS011;25048;49.590;11.026;2024-03-07T04:12:52;634.27;;;100.50;;
29280;SDS011;25048;49.590;11.026;2024-03-07T04:15:19;640.53;;;100.53;;
29280;SDS011;25048;49.590;11.026;2024-03-07T04:17:47;645.33;;;104.07;;
29280;SDS011;25048;49.590;11.026;2024-03-07T04:20:16;638.90;;;98.20;;
29280;SDS011;25048;49.590;11.026;2024-03-07T04:22:43;639.83;;;99.53;;
29280;SDS011;25048;49.590;11.026;2024-03-07T04:25:11;648.10;;;100.53;;
29280;SDS011;25048;49.590;11.026;2024-03-07T04:27:40;648.93;;;101.13;;
29280;SDS011;25048;49.590;11.026;2024-03-07T04:30:07;649.37;;;100.83;;
29280;SDS011;25048;49.590;11.026;2024-03-07T04:32:36;648.20;;;99.97;;
29280;SDS011;25048;49.590;11.026;2024-03-07T04:35:04;643.73;;;98.17;;
29280;SDS011;25048;49.590;11.026;2024-03-07T04:37:33;646.27;;;97.93;;
29280;SDS011;25048;49.590;11.026;2024-03-07T04:40:06;646.13;;;98.83;;
29280;SDS011;25048;49.590;11.026;2024-03-07T04:42:45;644.87;;;97.87;;
29280;SDS011;25048;49.590;11.026;2024-03-07T04:45:17;653.20;;;99.13;;
29280;SDS011;25048;49.590;11.026;2024-03-07T04:47:46;653.37;;;98.33;;
29280;SDS011;25048;49.590;11.026;2024-03-07T04:50:13;670.53;;;114.93;;
29280;SDS011;25048;49.590;11.026;2024-03-07T04:52:43;674.00;;;109.67;;
29280;SDS011;25048;49.590;11.026;2024-03-07T04:55:11;652.43;;;100.73;;
29280;SDS011;25048;49.590;11.026;2024-03-07T04:57:39;650.97;;;115.37;;
29280;SDS011;25048;49.590;11.026;2024-03-07T05:00:07;638.00;;;115.93;;
29280;SDS011;25048;49.590;11.026;2024-03-07T05:02:45;636.90;;;116.77;;
29280;SDS011;25048;49.590;11.026;2024-03-07T05:05:13;631.10;;;117.50;;
29280;SDS011;25048;49.590;11.026;2024-03-07T05:07:43;628.13;;;119.43;;
29280;SDS011;25048;49.590;11.026;2024-03-07T05:10:10;633.07;;;118.10;;
29280;SDS011;25048;49.590;11.026;2024-03-07T05:12:38;635.07;;;119.30;;
29280;SDS011;25048;49.590;11.026;2024-03-07T05:15:06;627.13;;;119.10;;
29280;SDS011;25048;49.590;11.026;2024-03-07T05:17:36;622.47;;;118.40;;
29280;SDS011;25048;49.590;11.026;2024-03-07T05:20:05;639.17;;;117.47;;
29280;SDS011;25048;49.590;11.026;2024-03-07T05:22:36;626.27;;;116.37;;
29280;SDS011;25048;49.590;11.026;2024-03-07T05:25:05;622.70;;;121.10;;
29280;SDS011;25048;49.590;11.026;2024-03-07T05:27:33;641.03;;;120.47;;
29280;SDS011;25048;49.590;11.026;2024-03-07T05:30:02;618.47;;;117.60;;
29280;SDS011;25048;49.590;11.026;2024-03-07T05:32:35;640.07;;;112.80;;
29280;SDS011;25048;49.590;11.026;2024-03-07T05:35:02;671.63;;;114.90;;
29280;SDS011;25048;49.590;11.026;2024-03-07T05:37:30;679.87;;;117.87;;
29280;SDS011;25048;49.590;11.026;2024-03-07T05:39:58;681.10;;;114.77;;
29280;SDS011;25048;49.590;11.026;2024-03-07T05:42:25;689.17;;;115.57;;
29280;SDS011;25048;49.590;11.026;2024-03-07T05:44:53;679.87;;;112.17;;
29280;SDS011;25048;49.590;11.026;2024-03-07T05:47:20;672.87;;;108.10;;
29280;SDS011;25048;49.590;11.026;2024-03-07T05:49:48;667.50;;;106.67;;
29280;SDS011;25048;49.590;11.026;2024-03-07T05:52:16;661.30;;;103.70;;
29280;SDS011;25048;49.590;11.026;2024-03-07T05:54:44;655.60;;;99.77;;
29280;SDS011;25048;49.590;11.026;2024-03-07T05:57:11;656.47;;;100.50;;
29280;SDS011;25048;49.590;11.026;2024-03-07T05:59:39;649.77;;;101.40;;
29280;SDS011;25048;49.590;11.026;2024-03-07T06:02:06;642.40;;;110.33;;
29280;SDS011;25048;49.590;11.026;2024-03-07T06:04:34;661.57;;;99.57;;
29280;SDS011;25048;49.590;11.026;2024-03-07T06:07:01;644.47;;;102.60;;
29280;SDS011;25048;49.590;11.026;2024-03-07T06:09:29;653.93;;;97.63;;
29280;SDS011;25048;49.590;11.026;2024-03-07T06:11:57;647.27;;;98.77;;
29280;SDS011;25048;49.590;11.026;2024-03-07T06:14:24;652.47;;;102.83;;
29280;SDS011;25048;49.590;11.026;2024-03-07T06:16:52;656.03;;;102.83;;
29280;SDS011;25048;49.590;11.026;2024-03-07T06:19:19;653.23;;;103.27;;
29280;SDS011;25048;49.590;11.026;2024-03-07T06:21:47;661.03;;;107.47;;
29280;SDS011;25048;49.590;11.026;2024-03-07T06:24:15;662.87;;;104.30;;
29280;SDS011;25048;49.590;11.026;2024-03-07T06:26:44;659.17;;;106.47;;
29280;SDS011;25048;49.590;11.026;2024-03-07T06:29:19;652.30;;;100.97;;
29280;SDS011;25048;49.590;11.026;2024-03-07T06:31:47;665.00;;;105.03;;
29280;SDS011;25048;49.590;11.026;2024-03-07T06:34:15;658.17;;;107.33;;
29280;SDS011;25048;49.590;11.026;2024-03-07T06:36:43;580.73;;;133.83;;
29280;SDS011;25048;49.590;11.026;2024-03-07T06:39:10;557.67;;;137.83;;
29280;SDS011;25048;49.590;11.026;2024-03-07T06:41:38;578.30;;;137.60;;
29280;SDS011;25048;49.590;11.026;2024-03-07T06:44:06;595.63;;;141.93;;
29280;SDS011;25048;49.590;11.026;2024-03-07T06:46:35;624.63;;;141.00;;
29280;SDS011;25048;49.590;11.026;2024-03-07T06:49:03;688.17;;;133.47;;
29280;SDS011;25048;49.590;11.026;2024-03-07T06:51:32;694.07;;;130.80;;
29280;SDS011;25048;49.590;11.026;2024-03-07T06:53:59;688.43;;;125.97;;
29280;SDS011;25048;49.590;11.026;2024-03-07T06:56:27;689.07;;;126.67;;
29280;SDS011;25048;49.590;11.026;2024-03-07T06:58:54;687.33;;;132.53;;
29280;SDS011;25048;49.590;11.026;2024-03-07T07:01:22;690.33;;;134.53;;
29280;SDS011;25048;49.590;11.026;2024-03-07T07:03:49;681.43;;;125.37;;
29280;SDS011;25048;49.590;11.026;2024-03-07T07:06:17;667.27;;;116.27;;
29280;SDS011;25048;49.590;11.026;2024-03-07T07:08:45;663.20;;;114.43;;
29280;SDS011;25048;49.590;11.026;2024-03-07T07:11:13;666.10;;;118.63;;
29280;SDS011;25048;49.590;11.026;2024-03-07T07:13:41;669.73;;;118.87;;
29280;SDS011;25048;49.590;11.026;2024-03-07T07:16:08;673.20;;;122.07;;
29280;SDS011;25048;49.590;11.026;2024-03-07T07:18:36;680.97;;;130.53;;
29280;SDS011;25048;49.590;11.026;2024-03-07T07:21:04;671.63;;;126.03;;
29280;SDS011;25048;49.590;11.026;2024-03-07T07:23:33;337.10;;;159.33;;
29280;SDS011;25048;49.590;11.026;2024-03-07T07:26:01;677.40;;;130.50;;
29280;SDS011;25048;49.590;11.026;2024-03-07T07:28:30;690.73;;;144.83;;
29280;SDS011;25048;49.590;11.026;2024-03-07T07:30:59;692.00;;;146.20;;
29280;SDS011;25048;49.590;11.026;2024-03-07T07:33:27;699.20;;;151.83;;
29280;SDS011;25048;49.590;11.026;2024-03-07T07:35:54;678.90;;;137.90;;
29280;SDS011;25048;49.590;11.026;2024-03-07T07:38:22;688.90;;;145.23;;
29280;SDS011;25048;49.590;11.026;2024-03-07T07:40:49;671.70;;;133.83;;
29280;SDS011;25048;49.590;11.026;2024-03-07T07:43:17;681.27;;;144.63;;
29280;SDS011;25048;49.590;11.026;2024-03-07T07:45:45;677.70;;;143.80;;
29280;SDS011;25048;49.590;11.026;2024-03-07T07:48:12;678.93;;;146.73;;
29280;SDS011;25048;49.590;11.026;2024-03-07T07:50:41;676.97;;;147.90;;
29280;SDS011;25048;49.590;11.026;2024-03-07T07:53:08;677.17;;;148.03;;
29280;SDS011;25048;49.590;11.026;2024-03-07T07:55:36;677.77;;;146.90;;
29280;SDS011;25048;49.590;11.026;2024-03-07T07:58:04;676.37;;;145.23;;
29280;SDS011;25048;49.590;11.026;2024-03-07T08:00:32;677.27;;;151.07;;
29280;SDS011;25048;49.590;11.026;2024-03-07T08:03:01;678.50;;;152.17;;
29280;SDS011;25048;49.590;11.026;2024-03-07T08:05:32;688.30;;;162.40;;
29280;SDS011;25048;49.590;11.026;2024-03-07T08:08:03;677.93;;;148.83;;
29280;SDS011;25048;49.590;11.026;2024-03-07T08:10:32;673.77;;;150.60;;
29280;SDS011;25048;49.590;11.026;2024-03-07T08:13:02;694.33;;;172.43;;
29280;SDS011;25048;49.590;11.026;2024-03-07T08:15:32;698.60;;;178.67;;
29280;SDS011;25048;49.590;11.026;2024-03-07T08:18:00;628.43;;;217.63;;
29280;SDS011;25048;49.590;11.026;2024-03-07T08:20:28;482.27;;;240.83;;
29280;SDS011;25048;49.590;11.026;2024-03-07T08:22:56;502.07;;;252.00;;
29280;SDS011;25048;49.590;11.026;2024-03-07T08:25:25;539.13;;;258.47;;
29280;SDS011;25048;49.590;11.026;2024-03-07T08:27:55;483.30;;;235.17;;
29280;SDS011;25048;49.590;11.026;2024-03-07T08:30:24;663.07;;;234.83;;
29280;SDS011;25048;49.590;11.026;2024-03-07T08:32:54;613.13;;;206.93;;
29280;SDS011;25048;49.590;11.026;2024-03-07T08:35:23;118.20;;;108.97;;
29280;SDS011;25048;49.590;11.026;2024-03-07T08:37:50;317.43;;;258.50;;
29280;SDS011;25048;49.590;11.026;2024-03-07T08:40:19;416.20;;;275.10;;
29280;SDS011;25048;49.590;11.026;2024-03-07T08:42:50;168.10;;;155.60;;
29280;SDS011;25048;49.590;11.026;2024-03-07T08:45:19;406.03;;;316.20;;
29280;SDS011;25048;49.590;11.026;2024-03-07T08:47:53;20.03;;;11.77;;
29280;SDS011;25048;49.590;11.026;2024-03-07T08:50:17;38.17;;;34.53;;
29280;SDS011;25048;49.590;11.026;2024-03-07T08:52:45;593.30;;;374.60;;
29280;SDS011;25048;49.590;11.026;2024-03-07T08:55:22;725.47;;;366.00;;
29280;SDS011;25048;49.590;11.026;2024-03-07T08:57:47;737.53;;;331.60;;
29280;SDS011;25048;49.590;11.026;2024-03-07T09:00:15;717.87;;;407.50;;
29280;SDS011;25048;49.590;11.026;2024-03-07T09:02:53;792.07;;;427.80;;
29280;SDS011;25048;49.590;11.026;2024-03-07T09:05:25;760.93;;;344.27;;
29280;SDS011;25048;49.590;11.026;2024-03-07T09:07:54;676.90;;;223.40;;
29280;SDS011;25048;49.590;11.026;2024-03-07T09:10:22;720.83;;;300.73;;
29280;SDS011;25048;49.590;11.026;2024-03-07T09:12:51;714.70;;;298.97;;
29280;SDS011;25048;49.590;11.026;2024-03-07T09:15:19;707.37;;;297.53;;
29280;SDS011;25048;49.590;11.026;2024-03-07T09:17:50;681.43;;;287.40;;
29280;SDS011;25048;49.590;11.026;2024-03-07T09:20:18;683.67;;;264.07;;
29280;SDS011;25048;49.590;11.026;2024-03-07T09:22:50;737.87;;;352.27;;
29280;SDS011;25048;49.590;11.026;2024-03-07T09:25:16;687.37;;;275.73;;
29280;SDS011;25048;49.590;11.026;2024-03-07T09:27:44;679.50;;;274.10;;
29280;SDS011;25048;49.590;11.026;2024-03-07T09:30:12;691.97;;;286.67;;
29280;SDS011;25048;49.590;11.026;2024-03-07T09:32:44;688.17;;;280.87;;
29280;SDS011;25048;49.590;11.026;2024-03-07T09:35:12;714.43;;;343.33;;
29280;SDS011;25048;49.590;11.026;2024-03-07T09:37:45;712.40;;;333.80;;
29280;SDS011;25048;49.590;11.026;2024-03-07T09:40:09;713.50;;;328.23;;
29280;SDS011;25048;49.590;11.026;2024-03-07T09:42:44;719.10;;;342.17;;
29280;SDS011;25048;49.590;11.026;2024-03-07T09:45:15;728.80;;;373.27;;
29280;SDS011;25048;49.590;11.026;2024-03-07T09:47:45;779.30;;;445.10;;
29280;SDS011;25048;49.590;11.026;2024-03-07T09:50:17;780.53;;;469.87;;
29280;SDS011;25048;49.590;11.026;2024-03-07T09:52:52;768.73;;;461.17;;
29280;SDS011;25048;49.590;11.026;2024-03-07T09:55:17;784.83;;;492.57;;
29280;SDS011;25048;49.590;11.026;2024-03-07T09:57:50;797.00;;;508.73;;
29280;SDS011;25048;49.590;11.026;2024-03-07T10:00:19;797.50;;;514.80;;
29280;SDS011;25048;49.590;11.026;2024-03-07T10:02:55;795.97;;;509.67;;
29280;SDS011;25048;49.590;11.026;2024-03-07T10:05:30;795.33;;;511.70;;
29280;SDS011;25048;49.590;11.026;2024-03-07T10:07:55;794.93;;;512.97;;
29280;SDS011;25048;49.590;11.026;2024-03-07T10:10:23;795.40;;;521.07;;
29280;SDS011;25048;49.590;11.026;2024-03-07T10:12:51;784.20;;;485.37;;
29280;SDS011;25048;49.590;11.026;2024-03-07T10:15:19;791.23;;;503.17;;
29280;SDS011;25048;49.590;11.026;2024-03-07T10:17:48;775.27;;;477.73;;
29280;SDS011;25048;49.590;11.026;2024-03-07T10:20:18;770.73;;;468.50;;
29280;SDS011;25048;49.590;11.026;2024-03-07T10:22:47;749.23;;;414.20;;
29280;SDS011;25048;49.590;11.026;2024-03-07T10:25:18;764.90;;;452.60;;
29280;SDS011;25048;49.590;11.026;2024-03-07T10:27:49;707.40;;;335.80;;
29280;SDS011;25048;49.590;11.026;2024-03-07T10:30:18;727.97;;;389.23;;
29280;SDS011;25048;49.590;11.026;2024-03-07T10:32:57;802.67;;;507.90;;
29280;SDS011;25048;49.590;11.026;2024-03-07T10:35:26;805.93;;;519.60;;
29280;SDS011;25048;49.590;11.026;2024-03-07T10:37:54;786.23;;;465.13;;
29280;SDS011;25048;49.590;11.026;2024-03-07T10:40:24;779.13;;;536.33;;
29280;SDS011;25048;49.590;11.026;2024-03-07T10:42:55;752.20;;;581.50;;
29280;SDS011;25048;49.590;11.026;2024-03-07T10:45:23;790.50;;;585.20;;
29280;SDS011;25048;49.590;11.026;2024-03-07T10:47:54;782.37;;;599.33;;
29280;SDS011;25048;49.590;11.026;2024-03-07T10:53:10;779.13;;;601.30;;
29280;SDS011;25048;49.590;11.026;2024-03-07T10:58:37;736.90;;;587.77;;
29280;SDS011;25048;49.590;11.026;2024-03-07T11:01:07;732.73;;;578.57;;
29280;SDS011;25048;49.590;11.026;2024-03-07T11:03:38;800.87;;;566.67;;
29280;SDS011;25048;49.590;11.026;2024-03-07T11:06:08;712.50;;;359.00;;
29280;SDS011;25048;49.590;11.026;2024-03-07T11:08:37;713.90;;;392.30;;
29280;SDS011;25048;49.590;11.026;2024-03-07T11:11:05;756.53;;;370.77;;
29280;SDS011;25048;49.590;11.026;2024-03-07T11:13:34;289.23;;;265.83;;
29280;SDS011;25048;49.590;11.026;2024-03-07T11:16:03;538.27;;;254.30;;
29280;SDS011;25048;49.590;11.026;2024-03-07T11:18:32;716.30;;;305.03;;
29280;SDS011;25048;49.590;11.026;2024-03-07T11:20:59;653.33;;;255.90;;
29280;SDS011;25048;49.590;11.026;2024-03-07T11:23:32;671.27;;;230.93;;
29280;SDS011;25048;49.590;11.026;2024-03-07T11:26:08;683.73;;;251.13;;
29280;SDS011;25048;49.590;11.026;2024-03-07T11:28:39;675.63;;;218.57;;
29280;SDS011;25048;49.590;11.026;2024-03-07T11:31:15;639.13;;;312.73;;
29280;SDS011;25048;49.590;11.026;2024-03-07T11:34:12;369.13;;;187.20;;
29280;SDS011;25048;49.590;11.026;2024-03-07T11:36:45;15.70;;;7.20;;
29280;SDS011;25048;49.590;11.026;2024-03-07T11:42:19;18.80;;;7.80;;
29280;SDS011;25048;49.590;11.026;2024-03-07T11:44:54;295.27;;;206.97;;
29280;SDS011;25048;49.590;11.026;2024-03-07T11:47:35;38.42;;;35.33;;
29280;SDS011;25048;49.590;11.026;2024-03-07T11:49:54;692.03;;;281.23;;
29280;SDS011;25048;49.590;11.026;2024-03-07T11:52:24;383.83;;;356.50;;
29280;SDS011;25048;49.590;11.026;2024-03-07T11:54:53;703.27;;;301.23;;
29280;SDS011;25048;49.590;11.026;2024-03-07T11:57:22;547.93;;;352.93;;
29280;SDS011;25048;49.590;11.026;2024-03-07T11:59:52;569.63;;;365.60;;
29280;SDS011;25048;49.590;11.026;2024-03-07T12:02:19;705.87;;;301.47;;
29280;SDS011;25048;49.590;11.026;2024-03-07T12:04:50;666.03;;;233.33;;
29280;SDS011;25048;49.590;11.026;2024-03-07T12:07:18;595.17;;;344.67;;
29280;SDS011;25048;49.590;11.026;2024-03-07T12:09:48;691.53;;;356.73;;
29280;SDS011;25048;49.590;11.026;2024-03-07T12:12:22;692.43;;;368.27;;
29280;SDS011;25048;49.590;11.026;2024-03-07T12:14:54;740.10;;;376.17;;
29280;SDS011;25048;49.590;11.026;2024-03-07T12:17:22;725.37;;;349.93;;
29280;SDS011;25048;49.590;11.026;2024-03-07T12:19:50;740.33;;;383.30;;
29280;SDS011;25048;49.590;11.026;2024-03-07T12:22:21;747.27;;;410.00;;
29280;SDS011;25048;49.590;11.026;2024-03-07T12:25:01;740.03;;;401.97;;
29280;SDS011;25048;49.590;11.026;2024-03-07T12:27:32;728.00;;;361.87;;
29280;SDS011;25048;49.590;11.026;2024-03-07T12:29:59;732.83;;;401.73;;
29280;SDS011;25048;49.590;11.026;2024-03-07T12:32:28;699.83;;;424.50;;
29280;SDS011;25048;49.590;11.026;2024-03-07T12:34:57;628.77;;;396.03;;
29280;SDS011;25048;49.590;11.026;2024-03-07T12:37:25;728.53;;;348.60;;
29280;SDS011;25048;49.590;11.026;2024-03-07T12:39:54;690.53;;;368.03;;
29280;SDS011;25048;49.590;11.026;2024-03-07T12:42:29;691.37;;;394.87;;
29280;SDS011;25048;49.590;11.026;2024-03-07T12:44:57;477.27;;;434.83;;
29280;SDS011;25048;49.590;11.026;2024-03-07T12:47:26;463.83;;;424.60;;
29280;SDS011;25048;49.590;11.026;2024-03-07T12:49:54;461.77;;;423.20;;
29280;SDS011;25048;49.590;11.026;2024-03-07T12:52:23;455.47;;;418.07;;
29280;SDS011;25048;49.590;11.026;2024-03-07T12:54:50;505.77;;;463.30;;
29280;SDS011;25048;49.590;11.026;2024-03-07T12:57:19;683.03;;;290.47;;
29280;SDS011;25048;49.590;11.026;2024-03-07T12:59:49;559.97;;;399.67;;
29280;SDS011;25048;49.590;11.026;2024-03-07T13:02:18;544.57;;;489.00;;
29280;SDS011;25048;49.590;11.026;2024-03-07T13:04:46;546.67;;;491.13;;
29280;SDS011;25048;49.590;11.026;2024-03-07T13:07:15;546.13;;;491.43;;
29280;SDS011;25048;49.590;11.026;2024-03-07T13:09:43;530.43;;;456.37;;
29280;SDS011;25048;49.590;11.026;2024-03-07T13:12:12;545.53;;;489.23;;
29280;SDS011;25048;49.590;11.026;2024-03-07T13:14:40;725.87;;;350.07;;
29280;SDS011;25048;49.590;11.026;2024-03-07T13:17:10;736.40;;;356.90;;
29280;SDS011;25048;49.590;11.026;2024-03-07T13:19:39;739.53;;;377.10;;
29280;SDS011;25048;49.590;11.026;2024-03-07T13:22:08;737.17;;;352.83;;
29280;SDS011;25048;49.590;11.026;2024-03-07T13:24:38;737.07;;;367.63;;
29280;SDS011;25048;49.590;11.026;2024-03-07T13:27:07;716.60;;;401.30;;
29280;SDS011;25048;49.590;11.026;2024-03-07T13:29:36;701.33;;;408.50;;
29280;SDS011;25048;49.590;11.026;2024-03-07T13:32:04;721.83;;;405.50;;
29280;SDS011;25048;49.590;11.026;2024-03-07T13:34:32;732.57;;;352.60;;
29280;SDS011;25048;49.590;11.026;2024-03-07T13:37:00;741.70;;;369.97;;
29280;SDS011;25048;49.590;11.026;2024-03-07T13:39:28;733.67;;;357.07;;
29280;SDS011;25048;49.590;11.026;2024-03-07T13:41:55;733.67;;;350.97;;
29280;SDS011;25048;49.590;11.026;2024-03-07T13:44:23;728.67;;;337.33;;
29280;SDS011;25048;49.590;11.026;2024-03-07T13:46:52;693.93;;;411.13;;
29280;SDS011;25048;49.590;11.026;2024-03-07T13:49:20;706.00;;;381.23;;
29280;SDS011;25048;49.590;11.026;2024-03-07T13:51:49;705.30;;;310.77;;
29280;SDS011;25048;49.590;11.026;2024-03-07T13:54:19;736.37;;;359.27;;
29280;SDS011;25048;49.590;11.026;2024-03-07T13:59:51;738.10;;;344.03;;
29280;SDS011;25048;49.590;11.026;2024-03-07T14:02:37;714.97;;;333.47;;
29280;SDS011;25048;49.590;11.026;2024-03-07T14:08:10;721.00;;;344.63;;
29280;SDS011;25048;49.590;11.026;2024-03-07T14:16:36;733.77;;;354.33;;